Time;durP1;ratioP1;P1;durP2;ratioP2;P2;SDS_P1;SDS_P2;PMS_P1;PMS_P2;Temp;Humidity;BMP_temperature;BMP_pressure;BME280_temperature;BME280_humidity;BME280_pressure;Samples;Min_cycle;Max_cycle;Signal;HPM_P1;HPM_P2
2020/12/20 00:02:20;;;;;;;20.85;12.05;;;;;;;3.69;76.42;98202.19;1818984;79;21263;-81
2020/12/20 00:04:47;;;;;;;22.85;12.58;;;;;;;3.67;76.54;98201.84;1819372;78;21144;-84
2020/12/20 00:07:16;;;;;;;20.20;11.95;;;;;;;3.64;76.46;98198.91;1818382;79;21152;-85
2020/12/20 00:09:44;;;;;;;21.23;12.73;;;;;;;3.66;76.50;98194.49;1819405;79;21144;-79
2020/12/20 00:12:11;;;;;;;19.25;11.35;;;;;;;3.70;76.65;98201.28;1819231;78;21131;-85
2020/12/20 00:14:39;;;;;;;20.90;9.98;;;;;;;3.71;76.37;98202.99;1819172;79;21159;-85
2020/12/20 00:17:12;;;;;;;21.42;12.03;;;;;;;3.70;76.23;98203.06;1819332;79;21144;-85
2020/12/20 00:19:43;;;;;;;20.55;9.80;;;;;;;3.66;76.49;98201.02;1819541;78;21131;-82
2020/12/20 00:22:17;;;;;;;23.45;12.58;;;;;;;3.68;76.50;98197.88;1819607;78;21133;-84
2020/12/20 00:24:45;;;;;;;14.98;7.28;;;;;;;3.68;76.72;98212.69;1819596;79;21207;-79
2020/12/20 00:27:13;;;;;;;14.18;6.92;;;;;;;3.68;76.63;98211.38;1819372;78;21267;-84
2020/12/20 00:29:41;;;;;;;20.88;10.75;;;;;;;3.61;76.76;98213.34;1819352;78;21262;-76
2020/12/20 00:32:12;;;;;;;15.35;8.80;;;;;;;3.56;76.81;98217.87;1818951;79;21183;-83
2020/12/20 00:34:41;;;;;;;21.30;10.55;;;;;;;3.59;76.89;98214.70;1818933;79;21259;-80
2020/12/20 00:37:09;;;;;;;18.75;11.15;;;;;;;3.49;76.99;98209.40;1819197;78;21262;-81
2020/12/20 00:39:37;;;;;;;18.02;10.53;;;;;;;3.48;77.24;98212.07;1819223;79;21227;-85
2020/12/20 00:42:06;;;;;;;19.80;10.98;;;;;;;3.55;77.17;98213.09;1819369;78;21250;-84
2020/12/20 00:44:35;;;;;;;21.07;12.75;;;;;;;3.57;77.02;98213.90;1819380;79;21273;-84
2020/12/20 00:47:04;;;;;;;20.17;12.25;;;;;;;3.59;77.34;98213.40;1819241;78;21155;-82
2020/12/20 00:49:34;;;;;;;20.45;10.98;;;;;;;3.66;76.98;98215.36;1819181;78;21274;-84
2020/12/20 00:52:06;;;;;;;20.68;12.63;;;;;;;3.68;76.55;98211.38;1819228;78;21163;-82
2020/12/20 00:54:36;;;;;;;21.27;12.33;;;;;;;3.64;76.24;98216.28;1819531;79;21262;-83
2020/12/20 00:57:05;;;;;;;19.75;11.22;;;;;;;3.64;76.15;98217.59;1799969;80;21135;-79
2020/12/20 00:59:32;;;;;;;19.37;12.05;;;;;;;3.58;76.02;98216.04;1800191;80;21190;-79
2020/12/20 01:02:01;;;;;;;19.40;12.23;;;;;;;3.55;76.08;98219.61;1799894;80;21304;-83
2020/12/20 01:04:31;;;;;;;23.85;13.85;;;;;;;3.57;76.23;98215.67;1800032;80;21142;-84
2020/12/20 01:06:59;;;;;;;23.27;12.88;;;;;;;3.55;76.65;98221.38;1799967;80;21186;-85
2020/12/20 01:09:29;;;;;;;23.38;12.75;;;;;;;3.56;76.27;98221.78;1800137;80;21166;-85
2020/12/20 01:11:59;;;;;;;20.25;12.00;;;;;;;3.58;76.23;98213.44;1800348;78;21242;-84
2020/12/20 01:14:29;;;;;;;21.02;11.15;;;;;;;3.59;76.22;98210.80;1800153;80;21119;-83
2020/12/20 01:16:58;;;;;;;17.45;9.35;;;;;;;3.58;76.22;98208.22;1800095;80;21254;-84
2020/12/20 01:19:27;;;;;;;21.60;10.30;;;;;;;3.65;76.26;98207.56;1798165;80;21269;-85
2020/12/20 01:21:55;;;;;;;21.42;10.43;;;;;;;3.68;76.13;98203.09;1812165;79;21242;-86
2020/12/20 01:24:23;;;;;;;22.32;10.45;;;;;;;3.70;76.03;98203.89;1819336;78;21175;-80
2020/12/20 01:26:51;;;;;;;19.73;10.38;;;;;;;3.72;76.08;98195.57;1819435;79;21259;-81
2020/12/20 01:29:19;;;;;;;17.37;9.30;;;;;;;3.78;76.08;98198.86;1819404;78;21278;-86
2020/12/20 01:31:51;;;;;;;16.87;10.15;;;;;;;3.78;75.87;98198.86;1819505;78;21234;-85
2020/12/20 01:34:22;;;;;;;18.87;10.40;;;;;;;3.82;76.10;98196.55;1823469;78;21191;-83
2020/12/20 01:36:50;;;;;;;17.73;10.05;;;;;;;3.94;76.43;98203.08;1824340;78;21088;-84
2020/12/20 01:39:18;;;;;;;17.87;10.05;;;;;;;4.10;76.52;98196.87;1824361;78;21242;-85
2020/12/20 01:41:46;;;;;;;17.35;9.08;;;;;;;4.22;76.40;98205.09;1824365;79;21088;-83
2020/12/20 01:44:15;;;;;;;20.97;11.30;;;;;;;4.35;76.40;98202.04;1822944;79;21096;-81
2020/12/20 01:46:44;;;;;;;19.67;10.48;;;;;;;4.49;76.13;98201.52;1824101;79;21245;-81
2020/12/20 01:49:13;;;;;;;14.50;8.20;;;;;;;4.48;75.81;98198.04;1823551;79;21168;-83
2020/12/20 01:51:42;;;;;;;16.35;9.10;;;;;;;4.51;75.17;98204.46;1794693;79;21282;-79
2020/12/20 01:54:11;;;;;;;17.42;9.38;;;;;;;4.50;75.36;98197.53;1823642;79;21099;-84
2020/12/20 01:56:41;;;;;;;15.90;9.45;;;;;;;4.46;75.16;98198.55;1823494;79;21144;-83
2020/12/20 01:59:10;;;;;;;19.00;9.63;;;;;;;4.48;75.16;98198.04;1822706;79;21226;-84
2020/12/20 02:01:40;;;;;;;16.10;8.18;;;;;;;4.49;74.73;98193.69;1823311;79;21108;-86
2020/12/20 02:04:10;;;;;;;19.02;9.78;;;;;;;4.46;74.07;98192.48;1823335;79;21137;-84
2020/12/20 02:06:39;;;;;;;16.17;9.63;;;;;;;4.40;73.89;98192.73;1823521;79;21222;-85
2020/12/20 02:09:06;;;;;;;15.38;9.63;;;;;;;4.32;73.74;98190.39;1824461;78;21122;-85
2020/12/20 02:11:34;;;;;;;14.47;8.30;;;;;;;4.27;73.71;98198.87;1824566;79;21093;-83
2020/12/20 02:14:03;;;;;;;16.12;8.88;;;;;;;4.24;73.77;98193.28;1823334;79;21155;-81
2020/12/20 02:16:45;;;;;;;14.03;8.70;;;;;;;4.18;73.15;98194.83;1828360;77;24240;-83
2020/12/20 02:19:13;;;;;;;10.65;6.03;;;;;;;4.06;72.50;98193.52;1832264;78;21132;-79
2020/12/20 02:21:41;;;;;;;13.05;6.78;;;;;;;4.00;72.98;98194.59;1832285;78;21136;-86
2020/12/20 02:24:10;;;;;;;11.83;6.80;;;;;;;3.87;72.57;98193.31;1831180;77;21135;-83
2020/12/20 02:26:39;;;;;;;10.55;5.90;;;;;;;3.82;72.45;98191.34;1830383;78;21261;-86
2020/12/20 02:29:08;;;;;;;16.42;8.43;;;;;;;3.84;73.14;98197.36;1816563;78;21140;-85
2020/12/20 02:31:37;;;;;;;15.03;7.92;;;;;;;3.79;72.58;98200.13;1799543;80;21116;-82
2020/12/20 02:34:07;;;;;;;13.60;7.55;;;;;;;3.73;72.75;98197.28;1799586;80;21100;-86
2020/12/20 02:36:36;;;;;;;16.62;9.20;;;;;;;3.69;72.21;98190.45;1770865;80;21123;-84
2020/12/20 02:39:07;;;;;;;14.23;8.25;;;;;;;3.72;72.88;98196.88;1799513;80;21249;-83
2020/12/20 02:41:48;;;;;;;14.07;8.20;;;;;;;3.86;73.62;98190.30;1783458;79;24180;-83
2020/12/20 02:44:15;;;;;;;16.15;8.50;;;;;;;3.80;73.74;98188.80;1757353;82;21326;-83
2020/12/20 02:46:45;;;;;;;16.85;8.38;;;;;;;3.79;73.64;98192.73;1757426;82;21108;-78
2020/12/20 02:49:14;;;;;;;13.90;7.60;;;;;;;3.74;73.52;98190.29;1756061;82;21109;-84
2020/12/20 02:51:43;;;;;;;11.55;6.65;;;;;;;3.69;73.59;98187.84;1757216;82;21113;-80
2020/12/20 02:54:11;;;;;;;14.58;8.03;;;;;;;3.66;73.49;98194.49;1757459;81;21235;-79
2020/12/20 02:56:44;;;;;;;10.38;5.35;;;;;;;3.60;73.19;98192.08;1757188;82;21167;-84
2020/12/20 02:59:13;;;;;;;15.95;8.40;;;;;;;3.56;73.36;98186.59;1756646;82;21160;-79
2020/12/20 03:01:41;;;;;;;10.95;5.80;;;;;;;3.53;73.72;98199.72;1757718;82;21258;-81
2020/12/20 03:04:10;;;;;;;12.05;6.92;;;;;;;3.54;73.67;98198.81;1757355;81;21287;-84
2020/12/20 03:06:38;;;;;;;14.25;7.37;;;;;;;3.47;73.56;98192.95;1757627;82;21211;-82
2020/12/20 03:09:06;;;;;;;13.13;7.30;;;;;;;3.47;73.47;98205.98;1757677;82;21179;-82
2020/12/20 03:11:35;;;;;;;11.93;6.60;;;;;;;3.48;72.90;98201.17;1757787;82;21129;-78
2020/12/20 03:14:04;;;;;;;14.93;7.53;;;;;;;3.52;73.77;98205.83;1757812;81;21220;-84
2020/12/20 03:16:33;;;;;;;13.70;6.90;;;;;;;3.53;73.06;98198.41;1757381;82;21115;-84
2020/12/20 03:19:01;;;;;;;15.85;8.08;;;;;;;3.58;73.13;98200.39;1758020;82;21112;-82
2020/12/20 03:21:28;;;;;;;11.85;6.20;;;;;;;3.59;73.73;98204.70;1757843;81;21164;-81
2020/12/20 03:24:02;;;;;;;13.10;7.78;;;;;;;3.64;73.71;98198.91;1753159;82;21271;-83
2020/12/20 03:26:45;;;;;;;12.98;7.42;;;;;;;3.61;73.16;98195.09;1757813;81;21144;-84
2020/12/20 03:29:31;;;;;;;14.73;7.90;;;;;;;3.62;73.37;98196.80;1738339;81;21349;-84
2020/12/20 03:32:12;;;;;;;13.03;7.50;;;;;;;3.63;71.93;98194.59;1783682;79;24132;-84
2020/12/20 03:34:54;;;;;;;13.68;7.22;;;;;;;3.55;72.34;98204.44;1756397;82;21254;-81
2020/12/20 03:37:23;;;;;;;14.68;7.70;;;;;;;3.51;72.60;98197.17;1757096;82;21270;-84
2020/12/20 03:39:55;;;;;;;11.53;6.60;;;;;;;3.44;72.51;98193.05;1756697;82;21146;-81
2020/12/20 03:42:23;;;;;;;13.00;6.53;;;;;;;3.44;72.77;98197.83;1728176;82;21166;-81
2020/12/20 03:44:50;;;;;;;13.05;6.62;;;;;;;3.42;72.98;98197.02;1757827;81;21171;-84
2020/12/20 03:47:19;;;;;;;12.50;6.90;;;;;;;3.43;72.87;98199.19;1757856;81;21153;-86
2020/12/20 03:49:48;;;;;;;10.75;6.15;;;;;;;3.48;73.33;98198.56;1757681;82;21140;-82
2020/12/20 03:52:16;;;;;;;9.23;5.33;;;;;;;3.53;73.33;98195.80;1757890;81;21242;-84
2020/12/20 03:54:45;;;;;;;10.98;5.92;;;;;;;3.59;73.24;98194.28;1755633;82;21268;-83
2020/12/20 03:57:13;;;;;;;8.25;5.05;;;;;;;3.67;73.63;98188.34;1757773;81;21101;-84
2020/12/20 03:59:40;;;;;;;9.85;5.47;;;;;;;3.69;71.69;98190.92;1757787;81;21176;-81
2020/12/20 04:02:09;;;;;;;10.58;5.65;;;;;;;3.70;72.87;98190.02;1757043;82;21278;-81
2020/12/20 04:04:36;;;;;;;13.28;6.60;;;;;;;3.72;72.85;98186.87;1757636;81;21148;-84
2020/12/20 04:07:04;;;;;;;11.40;6.40;;;;;;;3.75;72.40;98192.87;1757521;82;21145;-81
2020/12/20 04:09:33;;;;;;;12.43;6.75;;;;;;;3.73;72.33;98192.50;1757550;81;21143;-85
2020/12/20 04:12:03;;;;;;;10.78;6.30;;;;;;;3.71;72.56;98192.56;1755007;82;21285;-82
2020/12/20 04:14:31;;;;;;;8.53;5.20;;;;;;;3.71;72.65;98193.87;1757681;81;21164;-82
2020/12/20 04:16:58;;;;;;;12.73;7.47;;;;;;;3.68;72.72;98193.96;1757641;81;21143;-81
2020/12/20 04:19:26;;;;;;;13.53;7.50;;;;;;;3.56;72.63;98194.41;1757449;82;21136;-82
2020/12/20 04:21:55;;;;;;;13.10;6.17;;;;;;;3.52;72.90;98195.41;1756841;82;21120;-82
2020/12/20 04:24:37;;;;;;;12.25;6.60;;;;;;;3.46;73.03;98191.71;1733953;82;21220;-86
2020/12/20 04:27:05;;;;;;;13.43;7.22;;;;;;;3.44;73.20;98191.30;1757679;82;21167;-81
2020/12/20 04:29:34;;;;;;;15.08;7.53;;;;;;;3.50;73.48;98191.98;1734368;82;21141;-82
2020/12/20 04:32:03;;;;;;;13.62;7.17;;;;;;;3.57;73.59;98188.29;1728176;83;21163;-82
2020/12/20 04:34:32;;;;;;;12.75;6.90;;;;;;;3.64;73.70;98188.47;1701784;83;21231;-82
2020/12/20 04:36:59;;;;;;;12.70;7.42;;;;;;;3.65;73.29;98184.09;1728284;83;21232;-83
2020/12/20 04:39:54;;;;;;;16.20;8.18;;;;;;;3.72;72.97;98184.27;1791850;80;25396;-85
2020/12/20 04:42:25;;;;;;;13.45;6.42;;;;;;;3.72;73.50;98185.14;1766172;81;21159;-84
2020/12/20 04:44:53;;;;;;;14.93;7.87;;;;;;;3.77;73.45;98181.50;1766092;81;21273;-84
2020/12/20 04:47:24;;;;;;;13.62;6.85;;;;;;;3.71;72.95;98183.44;1766060;81;21116;-85
2020/12/20 04:49:53;;;;;;;13.80;7.85;;;;;;;3.62;72.87;98184.22;1765897;81;21146;-82
2020/12/20 04:52:23;;;;;;;13.08;7.50;;;;;;;3.54;72.66;98187.08;1765570;81;21238;-79
2020/12/20 04:54:52;;;;;;;13.62;7.37;;;;;;;3.51;73.06;98184.14;1766071;81;21605;-83
2020/12/20 04:57:27;;;;;;;14.18;7.03;;;;;;;3.48;73.18;98187.30;1760930;81;21608;-84
2020/12/20 04:59:55;;;;;;;11.70;5.72;;;;;;;3.51;73.41;98194.56;1766135;81;21120;-82
2020/12/20 05:02:23;;;;;;;12.43;5.97;;;;;;;3.50;73.15;98184.17;1766016;81;21159;-83
2020/12/20 05:04:50;;;;;;;10.95;6.10;;;;;;;3.47;73.15;98190.34;1766131;81;21290;-84
2020/12/20 05:07:18;;;;;;;12.93;7.10;;;;;;;3.52;73.29;98188.88;1765994;81;21156;-86
2020/12/20 05:09:50;;;;;;;12.82;6.42;;;;;;;3.57;73.42;98190.44;1765109;81;21143;-84
2020/12/20 05:12:29;;;;;;;13.70;5.95;;;;;;;3.63;73.49;98181.55;1764730;81;21239;-86
2020/12/20 05:14:59;;;;;;;13.05;5.85;;;;;;;3.74;73.54;98180.73;1765323;81;21286;-82
2020/12/20 05:17:28;;;;;;;10.70;5.83;;;;;;;3.87;73.55;98185.05;1766015;81;21172;-84
2020/12/20 05:19:57;;;;;;;13.08;6.70;;;;;;;3.98;73.64;98179.91;1763312;81;21286;-85
2020/12/20 05:22:25;;;;;;;11.88;6.72;;;;;;;4.10;73.50;98183.82;1766158;81;21235;-81
2020/12/20 05:24:55;;;;;;;10.00;5.90;;;;;;;4.22;73.47;98183.38;1764925;81;21302;-85
2020/12/20 05:27:29;;;;;;;8.73;5.87;;;;;;;4.33;73.49;98179.89;1765479;81;21191;-83
2020/12/20 05:30:17;;;;;;;11.28;6.28;;;;;;;4.46;73.14;98174.21;1760564;80;21311;-84
2020/12/20 05:33:04;;;;;;;15.03;6.55;;;;;;;4.56;72.79;98173.39;1761208;82;21259;-85
2020/12/20 05:35:33;;;;;;;10.38;6.05;;;;;;;4.64;72.07;98177.42;1761106;82;21275;-83
2020/12/20 05:38:04;;;;;;;11.78;6.62;;;;;;;4.70;72.00;98176.33;1758996;82;21303;-85
2020/12/20 05:40:35;;;;;;;11.78;6.35;;;;;;;4.76;71.60;98187.00;1746200;82;21199;-85
2020/12/20 05:43:11;;;;;;;12.70;7.45;;;;;;;4.80;71.57;98182.03;1746157;82;21128;-80
2020/12/20 05:45:42;;;;;;;12.88;6.80;;;;;;;4.81;71.54;98191.58;1745497;82;21270;-86
2020/12/20 05:48:24;;;;;;;10.85;6.58;;;;;;;4.77;71.36;98187.39;1720991;82;21172;-85
2020/12/20 05:51:03;;;;;;;11.43;6.40;;;;;;;4.74;71.04;98191.42;1745301;82;21165;-85
2020/12/20 05:53:32;;;;;;;;;;;;;;;4.66;70.98;98186.05;1721971;82;21168;-83
2020/12/20 05:56:03;;;;;;;8.15;4.75;;;;;;;4.56;70.45;98186.01;1745645;82;20225;-80
2020/12/20 05:58:33;;;;;;;9.55;5.70;;;;;;;4.49;70.92;98189.30;1745716;82;21295;-83
2020/12/20 06:01:01;;;;;;;10.20;6.10;;;;;;;4.42;71.09;98190.45;1745693;82;21132;-83
2020/12/20 06:03:29;;;;;;;10.20;5.97;;;;;;;4.37;71.22;98188.45;1745772;82;21282;-80
2020/12/20 06:06:00;;;;;;;8.85;5.58;;;;;;;4.35;71.37;98192.91;1745583;82;21173;-82
2020/12/20 06:08:32;;;;;;;13.50;7.45;;;;;;;4.34;71.43;98188.59;1745732;82;21716;-85
2020/12/20 06:11:03;;;;;;;12.88;5.37;;;;;;;4.30;71.32;98189.16;1745950;82;21310;-81
2020/12/20 06:13:33;;;;;;;10.13;5.70;;;;;;;4.25;71.20;98198.91;1745706;82;21121;-80
2020/12/20 06:16:07;;;;;;;8.65;4.70;;;;;;;4.20;71.24;98193.86;1745678;82;21156;-84
2020/12/20 06:18:40;;;;;;;8.80;4.70;;;;;;;4.18;71.15;98193.52;1745763;82;21318;-85
2020/12/20 06:21:11;;;;;;;8.33;5.20;;;;;;;4.15;71.21;98194.92;1744423;82;21283;-81
2020/12/20 06:23:42;;;;;;;10.35;5.35;;;;;;;4.12;71.40;98192.45;1745694;82;21243;-84
2020/12/20 06:26:16;;;;;;;10.13;5.85;;;;;;;4.14;71.54;98197.14;1745568;82;21732;-80
2020/12/20 06:28:47;;;;;;;10.23;5.65;;;;;;;4.19;71.86;98198.67;1745737;82;21185;-82
2020/12/20 06:31:17;;;;;;;10.00;5.08;;;;;;;4.27;72.09;98204.09;1745853;82;21082;-80
2020/12/20 06:33:51;;;;;;;10.10;5.30;;;;;;;4.30;71.99;98210.05;1745649;82;21291;-82
2020/12/20 06:36:18;;;;;;;11.33;5.45;;;;;;;4.26;71.54;98212.83;1745764;82;21302;-86
2020/12/20 06:38:54;;;;;;;6.70;3.87;;;;;;;4.24;71.93;98215.47;1746319;82;21271;-79
2020/12/20 06:41:40;;;;;;;14.30;7.33;;;;;;;4.23;72.23;98211.15;1747216;82;21161;-79
2020/12/20 06:44:15;;;;;;;10.80;7.20;;;;;;;4.11;71.72;98212.92;1747212;82;21259;-84
2020/12/20 06:46:43;;;;;;;11.70;6.22;;;;;;;4.08;71.72;98218.25;1747432;82;21137;-82
2020/12/20 06:49:36;;;;;;;13.68;6.85;;;;;;;4.04;71.65;98222.73;1746672;82;21249;-81
2020/12/20 06:52:28;;;;;;;15.28;6.53;;;;;;;3.99;71.68;98216.84;1734119;82;21173;-81
2020/12/20 06:55:12;;;;;;;12.85;6.42;;;;;;;3.90;71.60;98223.22;1747590;82;21141;-78
2020/12/20 06:58:07;;;;;;;14.28;6.92;;;;;;;3.76;71.89;98221.09;1747474;82;21165;-81
2020/12/20 07:00:53;;;;;;;12.07;6.62;;;;;;;3.79;72.12;98225.34;1747184;82;21314;-83
2020/12/20 07:03:32;;;;;;;10.50;5.90;;;;;;;3.75;72.21;98226.77;1747559;82;21287;-82
2020/12/20 07:06:14;;;;;;;9.48;4.72;;;;;;;3.74;72.14;98230.28;1747624;82;21282;-82
2020/12/20 07:08:58;;;;;;;9.90;6.00;;;;;;;3.61;72.20;98208.13;1746478;82;21167;-84
2020/12/20 07:11:27;;;;;;;9.98;6.17;;;;;;;3.22;72.40;98135.59;1747372;82;21113;-80
2020/12/20 07:13:56;;;;;;;11.70;6.22;;;;;;;3.78;72.12;98232.33;1747800;82;21125;-78
2020/12/20 07:16:39;;;;;;;13.32;6.37;;;;;;;3.75;72.27;98230.69;1747860;82;21172;-78
2020/12/20 07:19:07;;;;;;;11.75;6.37;;;;;;;3.79;72.34;98233.16;1747716;82;21121;-79
2020/12/20 07:22:01;;;;;;;16.10;7.87;;;;;;;3.84;72.77;98240.39;1747627;82;21204;-80
2020/12/20 07:24:33;;;;;;;14.00;8.58;;;;;;;3.83;72.68;98236.08;1747393;82;21168;-80
2020/12/20 07:27:05;;;;;;;17.30;9.43;;;;;;;3.79;72.73;98243.16;1747760;82;21142;-84
2020/12/20 07:29:38;;;;;;;14.60;8.65;;;;;;;3.81;72.88;98240.49;1747743;81;21150;-85
2020/12/20 07:32:06;;;;;;;17.57;9.43;;;;;;;3.82;72.79;98243.50;1747672;81;21780;-84
2020/12/20 07:34:34;;;;;;;12.20;7.62;;;;;;;3.81;72.90;98242.63;1747685;82;21298;-82
2020/12/20 07:37:02;;;;;;;16.12;7.80;;;;;;;3.82;72.91;98242.20;1747650;82;21169;-83
2020/12/20 07:39:29;;;;;;;21.20;12.70;;;;;;;3.82;72.92;98242.20;1747688;82;21305;-82
2020/12/20 07:41:58;;;;;;;15.70;9.65;;;;;;;3.84;73.04;98246.45;1747697;82;21220;-85
2020/12/20 07:44:27;;;;;;;13.22;8.08;;;;;;;3.90;72.97;98242.78;1746448;82;21153;-84
2020/12/20 07:46:54;;;;;;;13.75;7.00;;;;;;;3.98;73.12;98242.05;1747780;82;21160;-84
2020/12/20 07:49:21;;;;;;;10.72;6.80;;;;;;;4.03;72.60;98244.06;1746880;82;21152;-84
2020/12/20 07:51:49;;;;;;;13.80;7.17;;;;;;;4.06;72.65;98241.80;1747574;82;21116;-80
2020/12/20 07:54:17;;;;;;;16.25;6.60;;;;;;;4.11;72.14;98248.16;1747716;82;21086;-79
2020/12/20 07:56:47;;;;;;;9.28;5.67;;;;;;;4.17;72.49;98247.92;1747690;82;21286;-82
2020/12/20 07:59:18;;;;;;;10.05;5.37;;;;;;;4.19;72.46;98245.65;1747236;82;21216;-84
2020/12/20 08:01:48;;;;;;;12.00;6.33;;;;;;;4.17;70.23;98242.27;1747322;82;21116;-86
2020/12/20 08:04:20;;;;;;;15.40;7.35;;;;;;;4.16;71.06;98238.39;1747562;82;21117;-80
2020/12/20 08:06:53;;;;;;;12.82;7.10;;;;;;;4.21;72.10;98244.31;1747484;82;21306;-83
2020/12/20 08:09:25;;;;;;;7.17;4.37;;;;;;;4.22;72.00;98249.94;1747389;82;21235;-84
2020/12/20 08:11:54;;;;;;;13.83;7.05;;;;;;;4.26;71.60;98246.28;1747590;82;21137;-79
2020/12/20 08:14:23;;;;;;;12.68;7.65;;;;;;;4.29;71.93;98246.19;1747714;82;21266;-81
2020/12/20 08:16:54;;;;;;;13.05;6.90;;;;;;;4.34;71.97;98252.08;1747271;81;21184;-79
2020/12/20 08:19:29;;;;;;;11.08;6.25;;;;;;;4.43;71.77;98244.81;1747203;82;21310;-82
2020/12/20 08:22:17;;;;;;;9.65;6.37;;;;;;;4.56;71.24;98244.77;1828277;77;24284;-84
2020/12/20 08:24:47;;;;;;;10.18;6.70;;;;;;;4.52;70.89;98245.77;1764675;81;21294;-81
2020/12/20 08:27:28;;;;;;;14.00;6.90;;;;;;;4.55;71.02;98254.81;1774173;81;21127;-83
2020/12/20 08:30:04;;;;;;;11.73;6.33;;;;;;;4.60;70.89;98257.25;1744750;81;21198;-81
2020/12/20 08:32:38;;;;;;;13.85;7.70;;;;;;;4.58;70.50;98255.14;1743710;82;21147;-81
2020/12/20 08:35:20;;;;;;;9.55;5.47;;;;;;;4.45;71.05;98255.62;1743546;82;21099;-81
2020/12/20 08:37:58;;;;;;;12.50;7.20;;;;;;;4.48;71.47;98252.03;1743808;82;21254;-80
2020/12/20 08:40:32;;;;;;;14.23;8.08;;;;;;;4.42;71.09;98255.72;1743788;82;21132;-80
2020/12/20 08:43:01;;;;;;;18.05;8.23;;;;;;;4.46;71.65;98259.06;1743777;82;21261;-79
2020/12/20 08:45:31;;;;;;;13.95;7.92;;;;;;;4.51;71.71;98257.99;1743643;82;21135;-80
2020/12/20 08:48:04;;;;;;;14.80;7.80;;;;;;;4.56;71.98;98259.56;1743934;82;21108;-81
2020/12/20 08:50:32;;;;;;;19.82;9.05;;;;;;;4.60;71.84;98257.25;1743085;82;21162;-80
2020/12/20 08:53:06;;;;;;;13.83;7.60;;;;;;;4.61;71.76;98263.71;1743242;82;21626;-80
2020/12/20 08:55:34;;;;;;;16.07;9.98;;;;;;;4.63;70.93;98262.37;1743166;82;21703;-81
2020/12/20 08:58:04;;;;;;;11.63;7.62;;;;;;;4.69;71.18;98261.66;1743541;82;21151;-79
2020/12/20 09:00:34;;;;;;;15.53;8.98;;;;;;;4.75;71.31;98260.58;1743117;82;21266;-82
2020/12/20 09:03:04;;;;;;;14.60;7.15;;;;;;;4.71;70.76;98259.45;1743201;82;21269;-79
2020/12/20 09:05:35;;;;;;;11.48;7.00;;;;;;;4.66;70.91;98256.57;1743304;82;21099;-82
2020/12/20 09:08:04;;;;;;;12.70;7.03;;;;;;;4.64;70.17;98253.16;1743260;82;21142;-80
2020/12/20 09:10:34;;;;;;;13.48;6.90;;;;;;;4.65;70.30;98254.86;1742970;82;21158;-77
2020/12/20 09:13:06;;;;;;;13.22;6.87;;;;;;;4.66;70.46;98255.70;1743230;82;21759;-80
2020/12/20 09:15:36;;;;;;;5.65;3.27;;;;;;;4.74;70.35;98259.34;1743013;82;21310;-77
2020/12/20 09:18:25;;;;;;;6.15;3.52;;;;;;;4.77;69.65;98252.70;1742986;82;21134;-80
2020/12/20 09:20:53;;;;;;;11.33;5.15;;;;;;;4.67;69.90;98253.05;1738181;82;21147;-80
2020/12/20 09:23:22;;;;;;;9.65;5.83;;;;;;;4.66;69.56;98247.43;1726562;83;21132;-82
2020/12/20 09:25:59;;;;;;;10.00;5.90;;;;;;;4.71;68.72;98243.77;1791299;80;21170;-78
2020/12/20 09:28:29;;;;;;;10.40;6.30;;;;;;;4.78;69.21;98241.34;1790930;80;21262;-78
2020/12/20 09:30:58;;;;;;;12.53;6.08;;;;;;;4.81;69.98;98240.77;1791007;80;21241;-83
2020/12/20 09:33:38;;;;;;;11.68;6.40;;;;;;;4.89;69.58;98244.84;1790893;80;21179;-81
2020/12/20 09:36:15;;;;;;;7.70;4.92;;;;;;;4.92;69.10;98242.12;1791012;80;21167;-81
2020/12/20 09:38:48;;;;;;;13.43;6.12;;;;;;;4.96;69.17;98244.99;1791270;80;21226;-84
2020/12/20 09:41:23;;;;;;;8.30;5.03;;;;;;;4.92;66.63;98245.56;1791127;80;21077;-81
2020/12/20 09:43:54;;;;;;;7.87;5.30;;;;;;;4.93;67.72;98243.80;1791033;80;21112;-83
2020/12/20 09:46:28;;;;;;;9.75;5.35;;;;;;;4.85;67.25;98240.20;1790901;80;21104;-79
2020/12/20 09:48:59;;;;;;;7.37;4.50;;;;;;;4.80;67.34;98240.37;1791132;80;21226;-78
2020/12/20 09:51:27;;;;;;;11.88;6.55;;;;;;;4.72;68.02;98237.64;1791097;80;21085;-83
2020/12/20 09:53:55;;;;;;;6.97;5.03;;;;;;;4.67;68.37;98237.82;1790758;80;21166;-83
2020/12/20 09:56:23;;;;;;;10.82;5.60;;;;;;;4.63;68.12;98241.00;1791060;78;21151;-81
2020/12/20 09:58:50;;;;;;;7.50;4.60;;;;;;;4.62;68.78;98242.38;1791101;80;21123;-82
2020/12/20 10:01:20;;;;;;;11.43;5.85;;;;;;;4.65;68.65;98237.89;1790675;80;21143;-81
2020/12/20 10:03:49;;;;;;;4.50;3.00;;;;;;;4.68;68.61;98233.86;1790455;80;21245;-78
2020/12/20 10:06:18;;;;;;;7.80;4.62;;;;;;;4.79;69.24;98231.27;1791063;80;21731;-80
2020/12/20 10:08:46;;;;;;;8.33;5.30;;;;;;;4.73;67.41;98231.08;1790819;80;21093;-85
2020/12/20 10:11:19;;;;;;;11.18;4.70;;;;;;;4.74;68.10;98230.61;1790819;80;21320;-81
2020/12/20 10:13:48;;;;;;;10.55;6.05;;;;;;;4.73;67.64;98227.16;1790935;80;21080;-86
2020/12/20 10:16:20;;;;;;;8.60;5.78;;;;;;;4.79;68.56;98229.95;1790952;80;21238;-82
2020/12/20 10:18:47;;;;;;;13.60;8.88;;;;;;;4.86;68.64;98221.00;1790988;80;21254;-82
2020/12/20 10:21:18;;;;;;;12.45;8.15;;;;;;;4.87;68.27;98220.09;1794189;80;21153;-78
2020/12/20 10:23:47;;;;;;;15.08;7.00;;;;;;;4.85;67.29;98224.52;1798911;80;21099;-83
2020/12/20 10:26:14;;;;;;;8.35;5.85;;;;;;;4.80;68.01;98223.83;1799475;79;21273;-82
2020/12/20 10:28:42;;;;;;;11.53;6.35;;;;;;;4.79;68.12;98214.28;1799318;79;21147;-80
2020/12/20 10:31:09;;;;;;;8.60;5.12;;;;;;;4.72;68.06;98218.05;1799235;80;21107;-83
2020/12/20 10:33:37;;;;;;;12.37;6.33;;;;;;;4.69;68.02;98213.80;1799255;79;21699;-82
2020/12/20 10:36:05;;;;;;;9.60;5.33;;;;;;;4.67;68.28;98215.19;1799038;80;21155;-80
2020/12/20 10:38:32;;;;;;;9.48;5.47;;;;;;;4.72;68.49;98214.13;1798616;80;21076;-80
2020/12/20 10:41:00;;;;;;;8.78;4.70;;;;;;;4.76;68.43;98208.73;1798861;80;21250;-78
2020/12/20 10:43:27;;;;;;;8.85;5.20;;;;;;;4.73;67.57;98212.79;1799074;80;21150;-83
2020/12/20 10:45:55;;;;;;;8.65;5.35;;;;;;;4.73;67.25;98209.31;1773272;80;21257;-83
2020/12/20 10:48:23;;;;;;;11.30;5.67;;;;;;;4.67;67.23;98209.09;1799102;79;21095;-83
2020/12/20 10:50:50;;;;;;;8.43;5.35;;;;;;;4.66;67.46;98205.64;1799241;79;21273;-84
2020/12/20 10:53:18;;;;;;;5.95;3.85;;;;;;;4.57;66.96;98204.69;1799575;80;21214;-78
2020/12/20 10:55:45;;;;;;;6.55;4.35;;;;;;;4.53;67.56;98200.04;1799558;80;21273;-79
2020/12/20 10:58:12;;;;;;;9.80;5.62;;;;;;;4.47;67.53;98206.78;1799494;80;21155;-84
2020/12/20 11:00:40;;;;;;;8.05;4.97;;;;;;;4.45;67.64;98203.41;1799381;79;21150;-80
2020/12/20 11:03:07;;;;;;;8.03;4.78;;;;;;;4.38;67.46;98196.25;1799511;80;21280;-83
2020/12/20 11:05:35;;;;;;;9.13;5.58;;;;;;;4.41;67.68;98203.10;1799524;79;21155;-81
2020/12/20 11:08:02;;;;;;;7.10;4.83;;;;;;;4.28;66.91;98201.84;1799461;80;21098;-80
2020/12/20 11:10:29;;;;;;;7.72;4.72;;;;;;;4.35;67.81;98200.27;1799532;80;21138;-80
2020/12/20 11:12:57;;;;;;;7.20;4.58;;;;;;;4.39;67.62;98199.69;1799561;79;21111;-81
2020/12/20 11:15:24;;;;;;;5.25;3.00;;;;;;;4.34;67.48;98197.73;1799755;78;21218;-83
2020/12/20 11:17:51;;;;;;;6.67;4.65;;;;;;;4.42;67.97;98197.41;1799727;78;21233;-85
2020/12/20 11:20:19;;;;;;;11.88;4.95;;;;;;;4.44;68.18;98195.61;1799798;80;21249;-82
2020/12/20 11:22:46;;;;;;;8.35;4.65;;;;;;;4.49;68.33;98190.61;1791135;79;21155;-85
2020/12/20 11:25:14;;;;;;;10.05;5.20;;;;;;;4.63;68.39;98183.55;1790952;80;21218;-80
2020/12/20 11:27:41;;;;;;;9.33;4.45;;;;;;;4.77;68.37;98187.39;1790823;80;21100;-84
2020/12/20 11:30:08;;;;;;;6.95;5.03;;;;;;;4.87;67.84;98181.34;1790928;80;21100;-82
2020/12/20 11:32:36;;;;;;;9.10;5.30;;;;;;;4.91;67.89;98181.16;1790989;80;21131;-85
2020/12/20 11:35:04;;;;;;;8.48;5.12;;;;;;;5.00;68.13;98187.32;1791021;80;21703;-85
2020/12/20 11:37:32;;;;;;;7.95;4.45;;;;;;;5.14;67.97;98181.53;1790701;80;21107;-83
2020/12/20 11:39:59;;;;;;;8.95;5.33;;;;;;;5.17;67.60;98175.32;1790921;80;21305;-80
2020/12/20 11:42:27;;;;;;;9.03;4.97;;;;;;;5.22;67.81;98172.52;1790800;80;21250;-82
2020/12/20 11:44:56;;;;;;;7.05;5.08;;;;;;;5.26;67.66;98176.25;1790710;80;21309;-81
2020/12/20 11:47:23;;;;;;;7.55;5.20;;;;;;;5.28;67.18;98176.20;1790615;80;21068;-82
2020/12/20 11:49:51;;;;;;;9.90;5.10;;;;;;;5.35;67.44;98171.55;1790772;80;21277;-84
2020/12/20 11:52:18;;;;;;;8.35;4.90;;;;;;;5.41;67.43;98175.23;1790764;80;21253;-86